sensor_id;sensor_type;location;lat;lon;timestamp;P1;durP1;ratioP1;P2;durP2;ratioP2
21472;SDS011;10898;48.072;11.682;2024-01-27T00:01:31;1.85;;;1.75;;
21472;SDS011;10898;48.072;11.682;2024-01-27T00:03:33;2.78;;;2.10;;
21472;SDS011;10898;48.072;11.682;2024-01-27T00:05:35;2.45;;;2.10;;
21472;SDS011;10898;48.072;11.682;2024-01-27T00:07:36;2.10;;;1.92;;
21472;SDS011;10898;48.072;11.682;2024-01-27T00:09:38;2.38;;;1.85;;
21472;SDS011;10898;48.072;11.682;2024-01-27T00:13:43;4.20;;;1.77;;
21472;SDS011;10898;48.072;11.682;2024-01-27T00:15:45;2.13;;;1.92;;
21472;SDS011;10898;48.072;11.682;2024-01-27T00:17:47;2.38;;;2.20;;
21472;SDS011;10898;48.072;11.682;2024-01-27T00:19:50;2.60;;;2.40;;
21472;SDS011;10898;48.072;11.682;2024-01-27T00:21:55;4.82;;;2.40;;
21472;SDS011;10898;48.072;11.682;2024-01-27T00:23:57;1.95;;;1.83;;
21472;SDS011;10898;48.072;11.682;2024-01-27T00:26:02;2.92;;;1.73;;
21472;SDS011;10898;48.072;11.682;2024-01-27T00:28:04;3.25;;;1.77;;
21472;SDS011;10898;48.072;11.682;2024-01-27T00:30:06;2.08;;;1.70;;
21472;SDS011;10898;48.072;11.682;2024-01-27T00:34:10;3.53;;;2.13;;
21472;SDS011;10898;48.072;11.682;2024-01-27T00:36:12;1.73;;;1.63;;
21472;SDS011;10898;48.072;11.682;2024-01-27T00:38:14;3.13;;;2.05;;
21472;SDS011;10898;48.072;11.682;2024-01-27T00:40:16;2.42;;;2.22;;
21472;SDS011;10898;48.072;11.682;2024-01-27T00:42:17;2.72;;;2.53;;
21472;SDS011;10898;48.072;11.682;2024-01-27T00:44:25;4.18;;;2.00;;
21472;SDS011;10898;48.072;11.682;2024-01-27T00:46:27;2.55;;;2.10;;
21472;SDS011;10898;48.072;11.682;2024-01-27T00:48:29;1.80;;;1.70;;
21472;SDS011;10898;48.072;11.682;2024-01-27T00:50:31;3.10;;;2.10;;
21472;SDS011;10898;48.072;11.682;2024-01-27T00:52:33;3.22;;;2.20;;
21472;SDS011;10898;48.072;11.682;2024-01-27T00:54:34;2.05;;;1.83;;
21472;SDS011;10898;48.072;11.682;2024-01-27T00:56:36;1.95;;;1.77;;
21472;SDS011;10898;48.072;11.682;2024-01-27T00:58:38;2.15;;;1.98;;
21472;SDS011;10898;48.072;11.682;2024-01-27T01:00:40;2.15;;;1.95;;
21472;SDS011;10898;48.072;11.682;2024-01-27T01:02:42;2.47;;;1.90;;
21472;SDS011;10898;48.072;11.682;2024-01-27T01:04:43;2.22;;;2.08;;
21472;SDS011;10898;48.072;11.682;2024-01-27T01:06:46;2.55;;;2.33;;
21472;SDS011;10898;48.072;11.682;2024-01-27T01:08:48;3.63;;;2.08;;
21472;SDS011;10898;48.072;11.682;2024-01-27T01:10:49;3.55;;;1.65;;
21472;SDS011;10898;48.072;11.682;2024-01-27T01:12:51;3.10;;;2.20;;
21472;SDS011;10898;48.072;11.682;2024-01-27T01:14:53;2.28;;;2.05;;
21472;SDS011;10898;48.072;11.682;2024-01-27T01:16:55;2.42;;;2.25;;
21472;SDS011;10898;48.072;11.682;2024-01-27T01:18:57;2.38;;;2.17;;
21472;SDS011;10898;48.072;11.682;2024-01-27T01:20:58;3.47;;;2.10;;
21472;SDS011;10898;48.072;11.682;2024-01-27T01:23:00;2.00;;;1.90;;
21472;SDS011;10898;48.072;11.682;2024-01-27T01:25:02;2.72;;;2.45;;
21472;SDS011;10898;48.072;11.682;2024-01-27T01:27:04;1.83;;;1.70;;
21472;SDS011;10898;48.072;11.682;2024-01-27T01:31:09;4.28;;;2.03;;
21472;SDS011;10898;48.072;11.682;2024-01-27T01:33:11;1.85;;;1.75;;
21472;SDS011;10898;48.072;11.682;2024-01-27T01:35:13;3.03;;;2.00;;
21472;SDS011;10898;48.072;11.682;2024-01-27T01:37:15;2.17;;;2.00;;
21472;SDS011;10898;48.072;11.682;2024-01-27T01:39:17;2.40;;;2.20;;
21472;SDS011;10898;48.072;11.682;2024-01-27T01:41:19;3.92;;;2.00;;
21472;SDS011;10898;48.072;11.682;2024-01-27T01:43:20;2.50;;;2.15;;
21472;SDS011;10898;48.072;11.682;2024-01-27T01:45:22;2.38;;;2.17;;
21472;SDS011;10898;48.072;11.682;2024-01-27T01:47:24;4.97;;;2.47;;
21472;SDS011;10898;48.072;11.682;2024-01-27T01:49:27;3.17;;;2.10;;
21472;SDS011;10898;48.072;11.682;2024-01-27T01:51:29;2.65;;;2.22;;
21472;SDS011;10898;48.072;11.682;2024-01-27T01:53:31;3.00;;;2.15;;
21472;SDS011;10898;48.072;11.682;2024-01-27T01:55:33;3.05;;;1.98;;
21472;SDS011;10898;48.072;11.682;2024-01-27T01:59:37;2.47;;;2.28;;
21472;SDS011;10898;48.072;11.682;2024-01-27T02:01:42;3.53;;;2.28;;
21472;SDS011;10898;48.072;11.682;2024-01-27T02:03:56;2.60;;;2.10;;
21472;SDS011;10898;48.072;11.682;2024-01-27T02:05:58;2.75;;;2.15;;
21472;SDS011;10898;48.072;11.682;2024-01-27T02:08:00;4.30;;;2.00;;
21472;SDS011;10898;48.072;11.682;2024-01-27T02:10:12;2.83;;;2.05;;
21472;SDS011;10898;48.072;11.682;2024-01-27T02:12:17;2.78;;;2.03;;
21472;SDS011;10898;48.072;11.682;2024-01-27T02:14:18;2.88;;;2.03;;
21472;SDS011;10898;48.072;11.682;2024-01-27T02:16:20;2.08;;;1.88;;
21472;SDS011;10898;48.072;11.682;2024-01-27T02:18:23;4.18;;;2.38;;
21472;SDS011;10898;48.072;11.682;2024-01-27T02:20:24;2.28;;;2.08;;
21472;SDS011;10898;48.072;11.682;2024-01-27T02:22:26;2.10;;;1.90;;
21472;SDS011;10898;48.072;11.682;2024-01-27T02:24:28;4.55;;;2.17;;
21472;SDS011;10898;48.072;11.682;2024-01-27T02:26:30;2.30;;;2.03;;
21472;SDS011;10898;48.072;11.682;2024-01-27T02:28:32;2.17;;;1.98;;
21472;SDS011;10898;48.072;11.682;2024-01-27T02:30:34;3.15;;;2.17;;
21472;SDS011;10898;48.072;11.682;2024-01-27T02:32:36;3.10;;;2.05;;
21472;SDS011;10898;48.072;11.682;2024-01-27T02:34:38;2.20;;;2.05;;
21472;SDS011;10898;48.072;11.682;2024-01-27T02:36:40;4.30;;;2.40;;
21472;SDS011;10898;48.072;11.682;2024-01-27T02:38:42;2.22;;;2.03;;
21472;SDS011;10898;48.072;11.682;2024-01-27T02:40:43;4.43;;;2.10;;
21472;SDS011;10898;48.072;11.682;2024-01-27T02:42:45;2.90;;;2.60;;
21472;SDS011;10898;48.072;11.682;2024-01-27T02:44:47;4.00;;;2.38;;
21472;SDS011;10898;48.072;11.682;2024-01-27T02:46:49;2.53;;;2.30;;
21472;SDS011;10898;48.072;11.682;2024-01-27T02:48:50;4.45;;;2.30;;
21472;SDS011;10898;48.072;11.682;2024-01-27T02:50:52;2.45;;;2.25;;
21472;SDS011;10898;48.072;11.682;2024-01-27T02:52:54;3.42;;;1.90;;
21472;SDS011;10898;48.072;11.682;2024-01-27T02:54:56;3.30;;;2.10;;
21472;SDS011;10898;48.072;11.682;2024-01-27T02:56:58;2.45;;;2.08;;
21472;SDS011;10898;48.072;11.682;2024-01-27T02:59:00;4.80;;;2.55;;
21472;SDS011;10898;48.072;11.682;2024-01-27T03:01:02;3.10;;;2.00;;
21472;SDS011;10898;48.072;11.682;2024-01-27T03:03:04;2.58;;;2.20;;
21472;SDS011;10898;48.072;11.682;2024-01-27T03:05:06;2.92;;;1.98;;
21472;SDS011;10898;48.072;11.682;2024-01-27T03:09:11;4.77;;;2.10;;
21472;SDS011;10898;48.072;11.682;2024-01-27T03:11:13;3.08;;;2.08;;
21472;SDS011;10898;48.072;11.682;2024-01-27T03:13:14;3.90;;;2.22;;
21472;SDS011;10898;48.072;11.682;2024-01-27T03:15:16;3.38;;;1.90;;
21472;SDS011;10898;48.072;11.682;2024-01-27T03:17:18;2.50;;;1.77;;
21472;SDS011;10898;48.072;11.682;2024-01-27T03:19:20;3.38;;;1.95;;
21472;SDS011;10898;48.072;11.682;2024-01-27T03:21:22;2.25;;;2.05;;
21472;SDS011;10898;48.072;11.682;2024-01-27T03:23:24;2.33;;;1.38;;
21472;SDS011;10898;48.072;11.682;2024-01-27T03:25:26;2.10;;;1.92;;
21472;SDS011;10898;48.072;11.682;2024-01-27T03:27:27;3.20;;;2.10;;
21472;SDS011;10898;48.072;11.682;2024-01-27T03:29:29;2.20;;;2.00;;
21472;SDS011;10898;48.072;11.682;2024-01-27T03:31:31;1.93;;;1.83;;
21472;SDS011;10898;48.072;11.682;2024-01-27T03:33:35;1.95;;;1.85;;
21472;SDS011;10898;48.072;11.682;2024-01-27T03:35:37;2.95;;;2.25;;
21472;SDS011;10898;48.072;11.682;2024-01-27T03:37:39;3.53;;;2.10;;
21472;SDS011;10898;48.072;11.682;2024-01-27T03:39:41;2.97;;;2.17;;
21472;SDS011;10898;48.072;11.682;2024-01-27T03:41:44;3.60;;;2.20;;
21472;SDS011;10898;48.072;11.682;2024-01-27T03:43:45;3.85;;;1.90;;
21472;SDS011;10898;48.072;11.682;2024-01-27T03:45:47;2.63;;;2.00;;
21472;SDS011;10898;48.072;11.682;2024-01-27T03:47:49;3.00;;;2.20;;
21472;SDS011;10898;48.072;11.682;2024-01-27T03:49:52;1.70;;;1.60;;
21472;SDS011;10898;48.072;11.682;2024-01-27T03:51:54;9.65;;;2.15;;
21472;SDS011;10898;48.072;11.682;2024-01-27T03:53:56;3.10;;;2.10;;
21472;SDS011;10898;48.072;11.682;2024-01-27T03:55:58;6.05;;;2.25;;
21472;SDS011;10898;48.072;11.682;2024-01-27T03:58:00;2.25;;;2.00;;
21472;SDS011;10898;48.072;11.682;2024-01-27T04:00:02;2.38;;;2.17;;
21472;SDS011;10898;48.072;11.682;2024-01-27T04:02:05;2.72;;;2.15;;
21472;SDS011;10898;48.072;11.682;2024-01-27T04:04:07;4.07;;;2.15;;
21472;SDS011;10898;48.072;11.682;2024-01-27T04:06:09;3.08;;;2.22;;
21472;SDS011;10898;48.072;11.682;2024-01-27T04:08:11;2.55;;;2.00;;
21472;SDS011;10898;48.072;11.682;2024-01-27T04:10:13;3.20;;;2.47;;
21472;SDS011;10898;48.072;11.682;2024-01-27T04:12:15;3.63;;;1.90;;
21472;SDS011;10898;48.072;11.682;2024-01-27T04:14:17;2.67;;;1.83;;
21472;SDS011;10898;48.072;11.682;2024-01-27T04:16:18;2.50;;;2.30;;
21472;SDS011;10898;48.072;11.682;2024-01-27T04:18:20;3.55;;;2.25;;
21472;SDS011;10898;48.072;11.682;2024-01-27T04:20:22;4.32;;;2.25;;
21472;SDS011;10898;48.072;11.682;2024-01-27T04:22:24;3.70;;;2.03;;
21472;SDS011;10898;48.072;11.682;2024-01-27T04:24:26;4.43;;;2.33;;
21472;SDS011;10898;48.072;11.682;2024-01-27T04:26:28;3.45;;;1.88;;
21472;SDS011;10898;48.072;11.682;2024-01-27T04:28:30;2.45;;;2.20;;
21472;SDS011;10898;48.072;11.682;2024-01-27T04:32:35;2.33;;;2.13;;
21472;SDS011;10898;48.072;11.682;2024-01-27T04:34:37;2.08;;;1.88;;
21472;SDS011;10898;48.072;11.682;2024-01-27T04:36:39;2.88;;;2.40;;
21472;SDS011;10898;48.072;11.682;2024-01-27T04:40:44;5.68;;;2.47;;
21472;SDS011;10898;48.072;11.682;2024-01-27T04:42:46;2.70;;;2.33;;
21472;SDS011;10898;48.072;11.682;2024-01-27T04:44:48;3.28;;;2.17;;
21472;SDS011;10898;48.072;11.682;2024-01-27T04:46:50;2.92;;;1.77;;
21472;SDS011;10898;48.072;11.682;2024-01-27T04:48:51;2.30;;;1.90;;
21472;SDS011;10898;48.072;11.682;2024-01-27T04:50:53;3.47;;;2.13;;
21472;SDS011;10898;48.072;11.682;2024-01-27T04:52:55;2.55;;;2.17;;
21472;SDS011;10898;48.072;11.682;2024-01-27T04:54:57;2.85;;;2.42;;
21472;SDS011;10898;48.072;11.682;2024-01-27T04:56:59;2.25;;;1.80;;
21472;SDS011;10898;48.072;11.682;2024-01-27T04:59:01;3.50;;;2.15;;
21472;SDS011;10898;48.072;11.682;2024-01-27T05:01:03;2.10;;;2.00;;
21472;SDS011;10898;48.072;11.682;2024-01-27T05:03:05;2.22;;;2.03;;
21472;SDS011;10898;48.072;11.682;2024-01-27T05:05:09;2.17;;;1.85;;
21472;SDS011;10898;48.072;11.682;2024-01-27T05:07:13;1.85;;;1.75;;
21472;SDS011;10898;48.072;11.682;2024-01-27T05:09:16;4.47;;;2.45;;
21472;SDS011;10898;48.072;11.682;2024-01-27T05:11:30;4.15;;;2.50;;
21472;SDS011;10898;48.072;11.682;2024-01-27T05:13:33;2.35;;;2.15;;
21472;SDS011;10898;48.072;11.682;2024-01-27T05:15:35;3.75;;;2.53;;
21472;SDS011;10898;48.072;11.682;2024-01-27T05:17:37;4.18;;;2.25;;
21472;SDS011;10898;48.072;11.682;2024-01-27T05:19:38;2.75;;;2.20;;
21472;SDS011;10898;48.072;11.682;2024-01-27T05:21:40;1.70;;;1.60;;
21472;SDS011;10898;48.072;11.682;2024-01-27T05:23:42;4.95;;;2.30;;
21472;SDS011;10898;48.072;11.682;2024-01-27T05:25:44;2.15;;;1.75;;
21472;SDS011;10898;48.072;11.682;2024-01-27T05:27:46;4.30;;;2.78;;
21472;SDS011;10898;48.072;11.682;2024-01-27T05:29:48;4.60;;;3.45;;
21472;SDS011;10898;48.072;11.682;2024-01-27T05:31:50;8.02;;;4.57;;
21472;SDS011;10898;48.072;11.682;2024-01-27T05:33:52;9.00;;;4.88;;
21472;SDS011;10898;48.072;11.682;2024-01-27T05:35:54;10.18;;;4.88;;
21472;SDS011;10898;48.072;11.682;2024-01-27T05:37:56;5.40;;;3.58;;
21472;SDS011;10898;48.072;11.682;2024-01-27T05:39:58;8.27;;;4.15;;
21472;SDS011;10898;48.072;11.682;2024-01-27T05:42:00;4.50;;;3.47;;
21472;SDS011;10898;48.072;11.682;2024-01-27T05:44:02;3.10;;;2.83;;
21472;SDS011;10898;48.072;11.682;2024-01-27T05:46:03;6.18;;;3.00;;
21472;SDS011;10898;48.072;11.682;2024-01-27T05:48:06;2.72;;;2.53;;
21472;SDS011;10898;48.072;11.682;2024-01-27T05:52:10;3.15;;;2.75;;
21472;SDS011;10898;48.072;11.682;2024-01-27T05:54:24;3.38;;;2.60;;
21472;SDS011;10898;48.072;11.682;2024-01-27T05:56:26;3.17;;;2.53;;
21472;SDS011;10898;48.072;11.682;2024-01-27T05:58:28;2.55;;;2.35;;
21472;SDS011;10898;48.072;11.682;2024-01-27T06:00:30;4.65;;;2.40;;
21472;SDS011;10898;48.072;11.682;2024-01-27T06:02:31;4.07;;;2.60;;
21472;SDS011;10898;48.072;11.682;2024-01-27T06:04:33;2.60;;;2.40;;
21472;SDS011;10898;48.072;11.682;2024-01-27T06:06:37;4.95;;;2.35;;
21472;SDS011;10898;48.072;11.682;2024-01-27T06:08:41;4.15;;;2.75;;
21472;SDS011;10898;48.072;11.682;2024-01-27T06:10:42;4.07;;;3.28;;
21472;SDS011;10898;48.072;11.682;2024-01-27T06:12:44;3.03;;;2.33;;
21472;SDS011;10898;48.072;11.682;2024-01-27T06:14:46;3.22;;;2.83;;
21472;SDS011;10898;48.072;11.682;2024-01-27T06:16:48;2.63;;;2.38;;
21472;SDS011;10898;48.072;11.682;2024-01-27T06:18:52;3.50;;;2.42;;
21472;SDS011;10898;48.072;11.682;2024-01-27T06:20:55;2.15;;;2.05;;
21472;SDS011;10898;48.072;11.682;2024-01-27T06:22:57;3.50;;;2.45;;
21472;SDS011;10898;48.072;11.682;2024-01-27T06:24:59;3.92;;;2.63;;
21472;SDS011;10898;48.072;11.682;2024-01-27T06:27:01;2.60;;;2.40;;
21472;SDS011;10898;48.072;11.682;2024-01-27T06:29:03;3.47;;;2.60;;
21472;SDS011;10898;48.072;11.682;2024-01-27T06:31:05;3.05;;;2.75;;
21472;SDS011;10898;48.072;11.682;2024-01-27T06:33:08;3.17;;;2.67;;
21472;SDS011;10898;48.072;11.682;2024-01-27T06:35:10;3.78;;;2.25;;
21472;SDS011;10898;48.072;11.682;2024-01-27T06:37:12;3.40;;;2.72;;
21472;SDS011;10898;48.072;11.682;2024-01-27T06:39:14;3.38;;;2.50;;
21472;SDS011;10898;48.072;11.682;2024-01-27T06:41:16;3.25;;;2.30;;
21472;SDS011;10898;48.072;11.682;2024-01-27T06:43:18;2.60;;;2.40;;
21472;SDS011;10898;48.072;11.682;2024-01-27T06:47:22;3.25;;;2.47;;
21472;SDS011;10898;48.072;11.682;2024-01-27T06:49:24;3.25;;;2.90;;
21472;SDS011;10898;48.072;11.682;2024-01-27T06:51:25;4.22;;;3.25;;
21472;SDS011;10898;48.072;11.682;2024-01-27T06:53:27;3.08;;;2.88;;
21472;SDS011;10898;48.072;11.682;2024-01-27T06:55:29;2.80;;;2.60;;
21472;SDS011;10898;48.072;11.682;2024-01-27T06:57:31;4.47;;;2.85;;
21472;SDS011;10898;48.072;11.682;2024-01-27T06:59:33;5.45;;;3.08;;
21472;SDS011;10898;48.072;11.682;2024-01-27T07:01:35;3.78;;;3.47;;
21472;SDS011;10898;48.072;11.682;2024-01-27T07:03:36;4.43;;;3.38;;
21472;SDS011;10898;48.072;11.682;2024-01-27T07:05:41;2.72;;;2.53;;
21472;SDS011;10898;48.072;11.682;2024-01-27T07:07:42;2.78;;;2.60;;
21472;SDS011;10898;48.072;11.682;2024-01-27T07:09:44;3.30;;;2.95;;
21472;SDS011;10898;48.072;11.682;2024-01-27T07:11:46;4.88;;;2.97;;
21472;SDS011;10898;48.072;11.682;2024-01-27T07:13:48;3.08;;;2.88;;
21472;SDS011;10898;48.072;11.682;2024-01-27T07:15:50;3.08;;;2.88;;
21472;SDS011;10898;48.072;11.682;2024-01-27T07:17:51;3.22;;;2.53;;
21472;SDS011;10898;48.072;11.682;2024-01-27T07:19:54;3.03;;;2.72;;
21472;SDS011;10898;48.072;11.682;2024-01-27T07:21:56;3.67;;;2.78;;
21472;SDS011;10898;48.072;11.682;2024-01-27T07:23:58;3.55;;;2.75;;
21472;SDS011;10898;48.072;11.682;2024-01-27T07:26:00;5.75;;;3.00;;
21472;SDS011;10898;48.072;11.682;2024-01-27T07:28:04;4.50;;;3.05;;
21472;SDS011;10898;48.072;11.682;2024-01-27T07:30:06;3.08;;;2.88;;
21472;SDS011;10898;48.072;11.682;2024-01-27T07:32:10;4.88;;;3.45;;
21472;SDS011;10898;48.072;11.682;2024-01-27T07:34:14;3.13;;;2.83;;
21472;SDS011;10898;48.072;11.682;2024-01-27T07:36:16;5.53;;;3.40;;
21472;SDS011;10898;48.072;11.682;2024-01-27T07:38:18;3.53;;;3.22;;
21472;SDS011;10898;48.072;11.682;2024-01-27T07:40:19;3.95;;;3.28;;
21472;SDS011;10898;48.072;11.682;2024-01-27T07:42:21;4.78;;;3.83;;
21472;SDS011;10898;48.072;11.682;2024-01-27T07:44:23;7.07;;;4.63;;
21472;SDS011;10898;48.072;11.682;2024-01-27T07:46:25;4.28;;;3.85;;
21472;SDS011;10898;48.072;11.682;2024-01-27T07:48:27;6.70;;;4.55;;
21472;SDS011;10898;48.072;11.682;2024-01-27T07:50:29;5.47;;;4.10;;
21472;SDS011;10898;48.072;11.682;2024-01-27T07:52:30;5.10;;;4.40;;
21472;SDS011;10898;48.072;11.682;2024-01-27T07:54:32;6.38;;;4.00;;
21472;SDS011;10898;48.072;11.682;2024-01-27T07:56:40;5.90;;;4.20;;
21472;SDS011;10898;48.072;11.682;2024-01-27T07:58:42;4.60;;;4.13;;
21472;SDS011;10898;48.072;11.682;2024-01-27T08:00:44;4.55;;;4.15;;
21472;SDS011;10898;48.072;11.682;2024-01-27T08:02:46;8.10;;;3.63;;
21472;SDS011;10898;48.072;11.682;2024-01-27T08:04:48;5.15;;;4.03;;
21472;SDS011;10898;48.072;11.682;2024-01-27T08:06:50;4.43;;;3.28;;
21472;SDS011;10898;48.072;11.682;2024-01-27T08:10:54;3.72;;;2.83;;
21472;SDS011;10898;48.072;11.682;2024-01-27T08:12:56;7.80;;;3.17;;
21472;SDS011;10898;48.072;11.682;2024-01-27T08:14:58;2.72;;;2.53;;
21472;SDS011;10898;48.072;11.682;2024-01-27T08:16:59;4.05;;;3.08;;
21472;SDS011;10898;48.072;11.682;2024-01-27T08:19:01;3.03;;;2.83;;
21472;SDS011;10898;48.072;11.682;2024-01-27T08:21:03;2.97;;;2.67;;
21472;SDS011;10898;48.072;11.682;2024-01-27T08:23:05;5.38;;;3.30;;
21472;SDS011;10898;48.072;11.682;2024-01-27T08:25:08;7.43;;;5.38;;
21472;SDS011;10898;48.072;11.682;2024-01-27T08:27:10;6.18;;;4.65;;
21472;SDS011;10898;48.072;11.682;2024-01-27T08:29:11;7.32;;;4.63;;
21472;SDS011;10898;48.072;11.682;2024-01-27T08:31:13;5.93;;;4.60;;
21472;SDS011;10898;48.072;11.682;2024-01-27T08:33:15;7.47;;;4.32;;
21472;SDS011;10898;48.072;11.682;2024-01-27T08:35:17;8.43;;;4.25;;
21472;SDS011;10898;48.072;11.682;2024-01-27T08:37:19;7.90;;;3.95;;
21472;SDS011;10898;48.072;11.682;2024-01-27T08:39:22;8.18;;;3.80;;
21472;SDS011;10898;48.072;11.682;2024-01-27T08:41:23;6.55;;;4.00;;
21472;SDS011;10898;48.072;11.682;2024-01-27T08:43:29;5.30;;;3.47;;
21472;SDS011;10898;48.072;11.682;2024-01-27T08:45:31;6.55;;;3.50;;
21472;SDS011;10898;48.072;11.682;2024-01-27T08:47:33;5.20;;;3.30;;
21472;SDS011;10898;48.072;11.682;2024-01-27T08:51:38;3.63;;;2.88;;
21472;SDS011;10898;48.072;11.682;2024-01-27T08:53:40;4.32;;;3.42;;
21472;SDS011;10898;48.072;11.682;2024-01-27T08:55:41;7.35;;;3.85;;
21472;SDS011;10898;48.072;11.682;2024-01-27T08:57:44;4.82;;;3.33;;
21472;SDS011;10898;48.072;11.682;2024-01-27T08:59:47;6.55;;;4.10;;
21472;SDS011;10898;48.072;11.682;2024-01-27T09:01:49;6.53;;;3.88;;
21472;SDS011;10898;48.072;11.682;2024-01-27T09:03:53;7.65;;;4.35;;
21472;SDS011;10898;48.072;11.682;2024-01-27T09:05:55;4.10;;;2.95;;
21472;SDS011;10898;48.072;11.682;2024-01-27T09:07:57;8.55;;;3.67;;
21472;SDS011;10898;48.072;11.682;2024-01-27T09:09:59;3.95;;;3.20;;
21472;SDS011;10898;48.072;11.682;2024-01-27T09:12:01;5.70;;;3.65;;
21472;SDS011;10898;48.072;11.682;2024-01-27T09:14:03;6.95;;;4.47;;
21472;SDS011;10898;48.072;11.682;2024-01-27T09:16:06;8.65;;;4.00;;
21472;SDS011;10898;48.072;11.682;2024-01-27T09:20:11;7.63;;;4.60;;
21472;SDS011;10898;48.072;11.682;2024-01-27T09:22:13;7.43;;;4.07;;
21472;SDS011;10898;48.072;11.682;2024-01-27T09:24:15;7.88;;;3.60;;
21472;SDS011;10898;48.072;11.682;2024-01-27T09:26:17;5.28;;;3.53;;
21472;SDS011;10898;48.072;11.682;2024-01-27T09:30:21;7.03;;;3.70;;
21472;SDS011;10898;48.072;11.682;2024-01-27T09:32:23;6.22;;;3.42;;
21472;SDS011;10898;48.072;11.682;2024-01-27T09:34:25;5.45;;;3.58;;
21472;SDS011;10898;48.072;11.682;2024-01-27T09:36:29;7.85;;;3.40;;
21472;SDS011;10898;48.072;11.682;2024-01-27T09:38:31;6.72;;;3.47;;
21472;SDS011;10898;48.072;11.682;2024-01-27T09:40:33;8.38;;;4.00;;
21472;SDS011;10898;48.072;11.682;2024-01-27T09:42:35;6.25;;;3.65;;
21472;SDS011;10898;48.072;11.682;2024-01-27T09:44:39;10.23;;;3.33;;
21472;SDS011;10898;48.072;11.682;2024-01-27T09:46:48;4.85;;;3.47;;
21472;SDS011;10898;48.072;11.682;2024-01-27T09:48:50;8.23;;;3.95;;
21472;SDS011;10898;48.072;11.682;2024-01-27T09:50:52;7.90;;;3.80;;
21472;SDS011;10898;48.072;11.682;2024-01-27T09:52:54;9.13;;;3.70;;
21472;SDS011;10898;48.072;11.682;2024-01-27T09:54:57;10.18;;;4.20;;
21472;SDS011;10898;48.072;11.682;2024-01-27T09:56:58;6.95;;;3.90;;
21472;SDS011;10898;48.072;11.682;2024-01-27T09:59:01;6.28;;;4.30;;
21472;SDS011;10898;48.072;11.682;2024-01-27T10:01:03;6.32;;;3.75;;
21472;SDS011;10898;48.072;11.682;2024-01-27T10:03:06;8.10;;;3.65;;
21472;SDS011;10898;48.072;11.682;2024-01-27T10:05:09;4.63;;;3.50;;
21472;SDS011;10898;48.072;11.682;2024-01-27T10:07:12;6.00;;;3.25;;
21472;SDS011;10898;48.072;11.682;2024-01-27T10:09:15;7.57;;;3.45;;
21472;SDS011;10898;48.072;11.682;2024-01-27T10:11:16;4.95;;;3.70;;
21472;SDS011;10898;48.072;11.682;2024-01-27T10:13:21;3.92;;;3.03;;
21472;SDS011;10898;48.072;11.682;2024-01-27T10:15:27;7.10;;;3.28;;
21472;SDS011;10898;48.072;11.682;2024-01-27T10:17:29;3.88;;;2.90;;
21472;SDS011;10898;48.072;11.682;2024-01-27T10:19:36;7.50;;;3.90;;
21472;SDS011;10898;48.072;11.682;2024-01-27T10:21:45;7.93;;;4.50;;
21472;SDS011;10898;48.072;11.682;2024-01-27T10:23:47;11.32;;;5.13;;
21472;SDS011;10898;48.072;11.682;2024-01-27T10:25:49;7.43;;;4.28;;
21472;SDS011;10898;48.072;11.682;2024-01-27T10:27:57;6.15;;;3.78;;
21472;SDS011;10898;48.072;11.682;2024-01-27T10:29:58;4.07;;;3.28;;
21472;SDS011;10898;48.072;11.682;2024-01-27T10:32:07;6.93;;;3.45;;
21472;SDS011;10898;48.072;11.682;2024-01-27T10:34:10;5.68;;;3.28;;
21472;SDS011;10898;48.072;11.682;2024-01-27T10:36:16;5.65;;;3.70;;
21472;SDS011;10898;48.072;11.682;2024-01-27T10:38:18;6.07;;;3.35;;
21472;SDS011;10898;48.072;11.682;2024-01-27T10:40:20;3.67;;;3.13;;
21472;SDS011;10898;48.072;11.682;2024-01-27T10:42:26;5.43;;;2.80;;
21472;SDS011;10898;48.072;11.682;2024-01-27T10:44:29;6.53;;;3.50;;
21472;SDS011;10898;48.072;11.682;2024-01-27T10:46:31;6.78;;;3.13;;
21472;SDS011;10898;48.072;11.682;2024-01-27T10:48:36;8.15;;;3.45;;
21472;SDS011;10898;48.072;11.682;2024-01-27T10:50:39;7.38;;;3.85;;
21472;SDS011;10898;48.072;11.682;2024-01-27T10:52:46;10.88;;;4.07;;
21472;SDS011;10898;48.072;11.682;2024-01-27T10:54:48;7.13;;;3.38;;
21472;SDS011;10898;48.072;11.682;2024-01-27T10:56:53;6.05;;;3.22;;
21472;SDS011;10898;48.072;11.682;2024-01-27T10:58:57;4.35;;;3.53;;
21472;SDS011;10898;48.072;11.682;2024-01-27T11:01:00;3.72;;;3.10;;
21472;SDS011;10898;48.072;11.682;2024-01-27T11:03:04;7.00;;;3.25;;
21472;SDS011;10898;48.072;11.682;2024-01-27T11:05:08;4.22;;;2.95;;
21472;SDS011;10898;48.072;11.682;2024-01-27T11:07:12;4.20;;;3.00;;
21472;SDS011;10898;48.072;11.682;2024-01-27T11:09:14;6.47;;;2.80;;
21472;SDS011;10898;48.072;11.682;2024-01-27T11:13:18;5.85;;;3.42;;
21472;SDS011;10898;48.072;11.682;2024-01-27T11:15:21;6.25;;;3.85;;
21472;SDS011;10898;48.072;11.682;2024-01-27T11:17:23;7.13;;;3.22;;
21472;SDS011;10898;48.072;11.682;2024-01-27T11:19:25;6.47;;;3.47;;
21472;SDS011;10898;48.072;11.682;2024-01-27T11:21:28;6.93;;;3.20;;
21472;SDS011;10898;48.072;11.682;2024-01-27T11:23:33;7.28;;;3.42;;
21472;SDS011;10898;48.072;11.682;2024-01-27T11:25:36;6.82;;;3.75;;
21472;SDS011;10898;48.072;11.682;2024-01-27T11:27:39;4.20;;;3.25;;
21472;SDS011;10898;48.072;11.682;2024-01-27T11:29:47;8.20;;;3.08;;
21472;SDS011;10898;48.072;11.682;2024-01-27T11:31:49;8.02;;;3.40;;
21472;SDS011;10898;48.072;11.682;2024-01-27T11:33:51;3.38;;;2.85;;
21472;SDS011;10898;48.072;11.682;2024-01-27T11:38:04;7.60;;;2.85;;
21472;SDS011;10898;48.072;11.682;2024-01-27T11:40:06;4.63;;;3.03;;
21472;SDS011;10898;48.072;11.682;2024-01-27T11:42:09;8.95;;;3.80;;
21472;SDS011;10898;48.072;11.682;2024-01-27T11:44:16;6.82;;;2.90;;
21472;SDS011;10898;48.072;11.682;2024-01-27T11:48:21;4.15;;;2.78;;
21472;SDS011;10898;48.072;11.682;2024-01-27T11:52:27;3.90;;;2.53;;
21472;SDS011;10898;48.072;11.682;2024-01-27T11:54:29;4.82;;;2.65;;
21472;SDS011;10898;48.072;11.682;2024-01-27T11:56:31;7.10;;;3.30;;
21472;SDS011;10898;48.072;11.682;2024-01-27T11:58:33;5.90;;;2.85;;
21472;SDS011;10898;48.072;11.682;2024-01-27T12:00:35;3.90;;;2.42;;
21472;SDS011;10898;48.072;11.682;2024-01-27T12:02:39;4.47;;;2.78;;
21472;SDS011;10898;48.072;11.682;2024-01-27T12:04:41;7.57;;;2.92;;
21472;SDS011;10898;48.072;11.682;2024-01-27T12:06:43;3.53;;;2.22;;
21472;SDS011;10898;48.072;11.682;2024-01-27T12:08:45;2.65;;;2.45;;
21472;SDS011;10898;48.072;11.682;2024-01-27T12:10:51;4.53;;;2.30;;
21472;SDS011;10898;48.072;11.682;2024-01-27T12:12:53;6.05;;;2.80;;
21472;SDS011;10898;48.072;11.682;2024-01-27T12:14:55;2.97;;;2.40;;
21472;SDS011;10898;48.072;11.682;2024-01-27T12:16:56;3.75;;;2.28;;
21472;SDS011;10898;48.072;11.682;2024-01-27T12:18:58;3.08;;;2.30;;
21472;SDS011;10898;48.072;11.682;2024-01-27T12:21:01;3.50;;;2.30;;
21472;SDS011;10898;48.072;11.682;2024-01-27T12:23:03;3.97;;;2.42;;
21472;SDS011;10898;48.072;11.682;2024-01-27T12:25:09;3.83;;;2.85;;
21472;SDS011;10898;48.072;11.682;2024-01-27T12:27:13;4.75;;;2.13;;
21472;SDS011;10898;48.072;11.682;2024-01-27T12:29:15;5.33;;;2.10;;
21472;SDS011;10898;48.072;11.682;2024-01-27T12:31:16;5.53;;;2.23;;
21472;SDS011;10898;48.072;11.682;2024-01-27T12:33:19;3.33;;;1.90;;
21472;SDS011;10898;48.072;11.682;2024-01-27T12:35:26;4.60;;;1.90;;
21472;SDS011;10898;48.072;11.682;2024-01-27T12:37:30;4.78;;;2.22;;
21472;SDS011;10898;48.072;11.682;2024-01-27T12:39:32;2.33;;;2.10;;
21472;SDS011;10898;48.072;11.682;2024-01-27T12:41:33;4.27;;;1.97;;